MDT,Max TemperatureF,Mean TemperatureF,Min TemperatureF,Max Dew PointF,MeanDew PointF,Min DewpointF,Max Humidity, Mean Humidity, Min Humidity, Max Sea Level PressureIn, Mean Sea Level PressureIn, Min Sea Level PressureIn, Max VisibilityMiles, Mean VisibilityMiles, Min VisibilityMiles, Max Wind SpeedMPH, Mean Wind SpeedMPH, Max Gust SpeedMPH,PrecipitationIn, CloudCover, Events, WindDirDegrees
2013-4-1,50,38,26,27,24,20,80,59,37,30.15,30.06,29.97,10,10,10,17,11,25,0.00,2,,153
2013-4-2,33,31,29,32,30,25,100,92,75,30.19,30.10,30.04,10,7,2,10,5,,0.03,8,Rain,178
2013-4-3,56,44,29,37,28,11,100,78,18,30.24,30.13,30.01,10,5,0,21,6,26,0.00,4,Fog-Rain-Snow,149
2013-4-4,64,46,28,27,20,16,87,41,16,30.18,30.07,29.95,10,10,10,16,9,20,0.00,0,,97
2013-4-5,70,52,36,28,17,12,58,23,11,29.94,29.79,29.63,10,10,10,21,10,32,0.00,2,,261
2013-4-6,61,45,30,31,23,16,68,36,21,29.94,29.83,29.72,10,10,10,28,13,43,0.00,1,,174
2013-4-7,64,46,30,31,17,10,90,29,12,29.82,29.73,29.60,10,10,10,29,12,47,0.00,1,Rain,273
2013-4-8,65,46,27,32,24,12,93,54,14,29.69,29.54,29.29,10,10,10,32,14,45,0.00,4,,343
2013-4-9,25,17,8,23,8,1,87,74,62,30.28,29.89,29.63,10,5,1,36,28,48,0.00,8,Snow,342
2013-4-10,28,16,3,14,5,-3,85,68,48,30.27,30.08,29.88,10,10,9,24,16,30,0.00,4,Snow,355
2013-4-11,52,30,9,32,23,5,90,59,25,30.02,29.85,29.77,10,10,10,23,10,31,0.00,3,Rain,2
2013-4-12,53,41,29,32,29,26,94,68,37,30.03,29.92,29.82,10,10,10,15,5,,0.01,4,Rain,137
2013-4-13,65,48,30,36,23,9,100,57,11,30.01,29.66,29.35,10,7,0,26,12,45,0.01,3,Fog-Rain,195
2013-4-14,52,42,33,36,21,4,100,52,15,29.70,29.54,29.35,10,9,3,33,18,41,0.15,1,Rain-Snow,306
2013-4-15,51,39,28,25,17,4,80,56,19,29.98,29.81,29.62,10,10,6,26,17,34,0.00,4,Snow,108
2013-4-16,43,34,24,27,23,19,100,80,46,30.02,29.90,29.80,10,9,2,25,17,33,0.00,7,Rain,151
2013-4-17,30,24,16,29,22,10,100,89,69,30.17,29.91,29.81,10,5,1,30,11,39,0.04,8,Rain-Snow,349
2013-4-18,32,22,11,16,11,5,86,69,45,30.30,30.11,30.00,10,9,6,20,13,26,0.00,4,Snow,360
2013-4-19,49,32,15,22,12,7,81,41,22,30.29,30.10,29.96,10,10,10,10,6,,0.00,1,,100
2013-4-20,54,40,26,37,24,17,99,54,25,30.05,29.94,29.84,10,10,10,20,8,24,0.00,3,Rain,357
2013-4-21,59,44,29,31,21,16,99,44,20,30.08,30.00,29.93,10,10,10,21,9,22,0.00,1,,97
2013-4-22,59,40,20,34,23,16,94,73,20,30.20,30.06,29.83,10,8,1,36,17,48,0.00,6,Rain-Snow,355
2013-4-23,27,22,16,21,16,12,90,81,63,30.35,30.16,30.08,10,6,2,12,7,,0.01,7,Snow,352
2013-4-24,48,30,13,23,15,10,88,57,26,30.35,30.27,30.22,10,10,10,9,7,,0.00,1,,9
2013-4-25,61,40,21,31,23,14,79,42,20,30.26,30.02,29.83,10,10,10,28,9,36,0.00,1,Rain,329
2013-4-26,62,50,35,28,16,9,57,27,13,30.22,30.10,29.91,10,10,10,23,14,28,0.00,1,,357
2013-4-27,69,50,31,24,16,6,71,31,9,30.24,30.08,29.95,10,10,10,12,8,24,0.00,0,,7
2013-4-28,73,54,34,26,16,7,55,25,7,30.01,29.86,29.74,10,10,10,16,9,21,0.00,1,,13
2013-4-29,77,60,42,30,19,10,57,22,8,29.81,29.68,29.52,10,10,10,22,9,39,0.00,1,,274
2013-4-30,69,56,42,37,28,17,64,32,19,29.83,29.68,29.48,10,10,10,25,12,30,0.00,3,,122